createdAt,value
2023-10-23T00:23:57.740Z,960.43
2023-10-23T01:49:25.653Z,960.79
2023-10-23T01:54:27.261Z,960.74
2023-10-23T01:59:29.085Z,960.71
2023-10-23T02:04:30.921Z,960.66
2023-10-23T02:09:32.496Z,960.7
2023-10-23T02:14:34.117Z,960.65
2023-10-23T02:19:36.007Z,960.64
2023-10-23T02:24:37.649Z,960.54
2023-10-23T02:29:38.650Z,960.55
2023-10-23T02:34:40.697Z,960.51
2023-10-23T02:39:42.663Z,960.57
2023-10-23T02:44:44.534Z,960.66
2023-10-23T02:49:46.108Z,960.67
2023-10-23T02:54:47.855Z,960.62
2023-10-23T02:59:49.655Z,960.49
2023-10-23T03:04:51.592Z,960.57
2023-10-23T03:09:53.587Z,960.52
2023-10-23T03:14:54.991Z,960.58
2023-10-23T03:19:56.554Z,960.72
2023-10-23T03:24:58.634Z,960.69
2023-10-23T03:30:00.022Z,960.7
2023-10-23T03:35:01.658Z,960.7
2023-10-23T03:40:03.264Z,960.75
2023-10-23T03:45:04.840Z,960.79
2023-10-23T03:50:06.218Z,960.81
2023-10-23T03:55:08.081Z,960.83
2023-10-23T04:00:09.332Z,960.79
2023-10-23T04:05:11.010Z,960.79
2023-10-23T04:10:12.482Z,960.77
2023-10-23T04:15:13.984Z,960.75
2023-10-23T04:20:15.397Z,960.69
2023-10-23T04:25:16.928Z,960.63
2023-10-23T04:30:18.329Z,960.59
2023-10-23T04:35:20.108Z,960.62
2023-10-23T04:40:21.482Z,960.56
2023-10-23T04:45:22.965Z,960.48
2023-10-23T04:50:25.112Z,960.5
2023-10-23T04:55:26.241Z,960.5
2023-10-23T05:00:27.459Z,960.51
2023-10-23T05:05:29.235Z,960.45
2023-10-23T05:10:31.037Z,960.38
2023-10-23T05:15:32.791Z,960.41
2023-10-23T05:20:34.482Z,960.41
2023-10-23T05:25:35.802Z,960.43
2023-10-23T05:30:37.465Z,960.39
2023-10-23T05:35:39.542Z,960.4
2023-10-23T05:40:41.229Z,960.48
2023-10-23T05:45:42.734Z,960.49
2023-10-23T05:50:44.102Z,960.51
2023-10-23T05:55:45.648Z,960.61
2023-10-23T06:00:47.910Z,960.63
2023-10-23T06:05:49.517Z,960.68
2023-10-23T06:10:51.291Z,960.72
2023-10-23T06:15:52.688Z,960.71
2023-10-23T06:20:54.319Z,960.82
2023-10-23T06:25:55.959Z,960.9
2023-10-23T06:30:57.342Z,960.9
2023-10-23T06:35:59.194Z,960.84
2023-10-23T06:41:00.431Z,961
2023-10-23T06:46:03.041Z,960.94
2023-10-23T06:51:03.670Z,960.87
2023-10-23T06:56:05.075Z,961.03
2023-10-23T07:01:07.192Z,960.98
2023-10-23T07:06:08.619Z,960.91
2023-10-23T07:11:09.885Z,960.77
2023-10-23T07:16:12.071Z,960.61
2023-10-23T07:21:15.621Z,960.6
2023-10-23T07:26:15.215Z,960.67
2023-10-23T07:31:17.273Z,960.82
2023-10-23T07:36:18.561Z,960.75
2023-10-23T07:41:19.959Z,960.76
2023-10-23T07:46:21.675Z,960.76
2023-10-23T07:51:22.912Z,960.9
2023-10-23T07:56:24.347Z,960.79
2023-10-23T08:01:25.677Z,960.61
2023-10-23T08:06:27.325Z,960.53
2023-10-23T08:11:28.607Z,960.46
2023-10-23T08:16:30.105Z,960.34
2023-10-23T08:21:31.568Z,960.33
2023-10-23T08:26:33.125Z,960.34
2023-10-23T08:31:39.698Z,960.32
2023-10-23T08:36:36.811Z,960.37
2023-10-23T08:41:41.182Z,960.33
2023-10-23T08:46:40.137Z,960.24
2023-10-23T08:51:41.559Z,960.21
2023-10-23T08:56:43.492Z,960.27
2023-10-23T09:01:45.199Z,960.33
2023-10-23T09:06:46.474Z,960.21
2023-10-23T09:11:48.398Z,960.11
2023-10-23T09:16:50.046Z,960.02
2023-10-23T09:21:51.501Z,960.02
2023-10-23T09:26:53.173Z,959.85
2023-10-23T09:31:55.339Z,959.67
2023-10-23T09:36:57.639Z,959.68
2023-10-23T09:41:59.224Z,959.69
2023-10-23T09:47:01.007Z,959.68
2023-10-23T09:52:02.736Z,959.74
2023-10-23T09:57:04.328Z,959.82
2023-10-23T10:02:06.257Z,959.85
2023-10-23T10:07:08.286Z,959.61
2023-10-23T10:12:09.665Z,959.59
2023-10-23T10:17:10.762Z,959.64
2023-10-23T10:22:12.230Z,959.55
2023-10-23T10:27:13.443Z,959.52
2023-10-23T10:32:14.802Z,959.46
2023-10-23T10:42:18.616Z,959.19
2023-10-23T10:47:19.993Z,959.07
2023-10-23T10:52:21.345Z,958.98
2023-10-23T10:57:22.949Z,958.95
2023-10-23T11:02:24.901Z,958.83
2023-10-23T11:07:26.565Z,958.77
2023-10-23T11:12:27.872Z,958.73
2023-10-23T11:17:29.219Z,958.74
2023-10-23T11:22:31.012Z,958.61
2023-10-23T11:27:32.362Z,958.52
2023-10-23T11:32:34.450Z,958.51
2023-10-23T11:37:36.558Z,958.69
2023-10-23T11:42:37.846Z,958.57
2023-10-23T11:47:39.369Z,958.5
2023-10-23T11:52:40.805Z,958.49
2023-10-23T11:57:42.642Z,958.4
2023-10-23T12:02:43.976Z,958.28
2023-10-23T12:07:45.361Z,958.13
2023-10-23T12:12:46.556Z,958.24
2023-10-23T12:17:48.062Z,958.35
2023-10-23T12:22:50.038Z,958.24
2023-10-23T12:27:51.620Z,958.14
2023-10-23T12:33:01.287Z,958.09
2023-10-23T12:37:55.546Z,958.21
2023-10-23T12:42:57.546Z,958.25
2023-10-23T12:47:58.944Z,958.2
2023-10-23T12:53:00.909Z,958.04
2023-10-23T12:58:02.596Z,957.98
2023-10-23T13:03:04.026Z,957.96
2023-10-23T13:08:06.086Z,957.87
2023-10-23T13:13:07.811Z,957.83
2023-10-23T13:18:09.214Z,957.8
2023-10-23T13:23:10.349Z,957.78
2023-10-23T13:28:11.598Z,957.73
2023-10-23T13:33:13.503Z,957.68
2023-10-23T13:38:15.567Z,957.54
2023-10-23T13:43:17.425Z,957.51
2023-10-23T13:48:18.593Z,957.35
2023-10-23T13:53:20.627Z,957.3
2023-10-23T13:58:22.808Z,957.24
2023-10-23T14:48:38.065Z,956.81
2023-10-23T15:03:43.350Z,956.45
2023-10-23T16:14:05.088Z,955.5
2023-10-23T16:54:24.991Z,955.5
2023-10-23T16:59:28.637Z,955.49
2023-10-23T17:04:28.507Z,955.5
2023-10-23T17:09:29.995Z,955.45
2023-10-23T17:14:31.305Z,955.47
2023-10-23T17:19:32.918Z,955.42
2023-10-23T17:24:34.999Z,955.31
2023-10-23T17:29:36.647Z,955.31
2023-10-23T17:34:38.431Z,955.23
2023-10-23T17:39:40.536Z,955.13
2023-10-23T17:44:42.008Z,955.06
2023-10-23T17:49:43.661Z,954.98
2023-10-23T17:54:45.214Z,954.94
2023-10-23T17:59:46.606Z,954.98
2023-10-23T18:04:48.622Z,954.95
2023-10-23T18:09:50.094Z,954.79
2023-10-23T18:14:52.221Z,954.67
2023-10-23T18:19:53.671Z,954.71
2023-10-23T18:24:55.150Z,954.71
2023-10-23T18:29:57.096Z,954.68
2023-10-23T18:34:59.119Z,954.58
2023-10-23T18:40:01.152Z,954.57
2023-10-23T18:45:03.018Z,954.56
2023-10-23T18:50:04.737Z,954.52
2023-10-23T18:55:05.911Z,954.51
2023-10-23T19:00:07.409Z,954.56
2023-10-23T19:05:09.187Z,954.41
2023-10-23T19:10:11.273Z,954.33
2023-10-23T19:15:12.737Z,954.36
2023-10-23T19:20:14.682Z,954.34
2023-10-23T19:25:16.780Z,954.34
2023-10-23T19:30:18.208Z,954.38
2023-10-23T19:35:19.909Z,954.35
2023-10-23T19:40:21.744Z,954.28
2023-10-23T19:45:23.697Z,954.29
2023-10-23T19:50:25.218Z,954.25
2023-10-23T19:55:44.162Z,954.11
2023-10-23T20:00:28.579Z,954.22
2023-10-23T20:05:30.524Z,954.18
2023-10-23T20:10:32.441Z,954.25
2023-10-23T20:15:34.205Z,954.28
2023-10-23T20:20:36.133Z,954.37
2023-10-23T20:25:38.075Z,954.24
2023-10-23T20:30:39.911Z,954.19
2023-10-23T20:35:43.884Z,954.3
2023-10-23T20:40:43.916Z,954.38
2023-10-23T20:45:46.073Z,954.39
2023-10-23T20:50:47.632Z,954.42
2023-10-23T20:55:48.825Z,954.37
2023-10-23T21:00:50.260Z,954.19
2023-10-23T21:05:51.913Z,954.19
2023-10-23T21:10:53.858Z,954.24
2023-10-23T21:15:55.570Z,954.17
2023-10-23T21:20:57.558Z,954.15
2023-10-23T21:25:58.813Z,954.19
2023-10-23T21:31:00.559Z,954.13
2023-10-23T21:36:01.822Z,954.23
2023-10-23T21:41:03.539Z,954.16
2023-10-23T21:46:16.473Z,954.24
2023-10-23T21:51:06.716Z,954.19
2023-10-23T21:56:08.215Z,954.17
2023-10-23T22:01:10.197Z,954.19
2023-10-23T22:06:11.805Z,954.27
2023-10-23T22:11:13.051Z,954.07
2023-10-23T22:16:14.376Z,954.09
2023-10-23T22:21:16.314Z,954.05
2023-10-23T22:26:17.911Z,953.96
2023-10-23T22:31:19.685Z,954.08
2023-10-23T22:36:21.782Z,954.13
2023-10-23T22:41:23.531Z,954.22
2023-10-23T22:46:24.914Z,954.19
2023-10-23T22:51:26.554Z,954.26
2023-10-23T22:56:27.762Z,954.51
2023-10-23T23:01:29.696Z,954.45
2023-10-23T23:06:31.528Z,954.5
2023-10-23T23:11:32.809Z,954.86
2023-10-23T23:16:34.819Z,954.86
2023-10-23T23:21:36.476Z,954.99
2023-10-23T23:26:37.639Z,954.99
2023-10-23T23:31:39.386Z,955
2023-10-23T23:36:41.343Z,955.01
2023-10-23T23:41:42.650Z,954.83
2023-10-23T23:46:44.794Z,954.57
2023-10-23T23:51:46.818Z,954.43
2023-10-23T23:56:48.508Z,954.41
